createdAt,value
2022-09-16T05:38:04.037Z,6.80
2022-09-16T05:53:15.326Z,6.37
2022-09-16T06:08:24.577Z,3.57
2022-09-16T06:24:20.417Z,3.47
2022-09-16T06:39:46.637Z,4.33
2022-09-16T08:14:03.494Z,4.20
2022-09-16T08:29:10.501Z,4.00
2022-09-16T08:44:40.478Z,5.00
2022-09-16T08:59:45.992Z,4.67
2022-09-16T09:15:18.719Z,4.70
2022-09-16T09:30:32.217Z,4.50
2022-09-16T09:45:38.077Z,4.40
2022-09-16T10:00:48.520Z,4.40
2022-09-16T10:15:56.330Z,4.70
2022-09-16T10:31:34.627Z,4.20
2022-09-16T10:46:40.270Z,3.27
2022-09-16T11:01:58.734Z,2.80
2022-09-16T11:18:24.613Z,2.67
2022-09-16T11:33:40.230Z,1.77
2022-09-16T11:48:52.266Z,1.90
2022-09-16T12:03:58.545Z,1.40
2022-09-16T12:19:14.272Z,2.00
2022-09-16T12:34:27.495Z,2.40
2022-09-16T12:49:55.478Z,2.50
2022-09-16T13:05:02.489Z,3.80
2022-09-16T13:20:18.180Z,3.30
2022-09-16T13:35:24.493Z,3.10
2022-09-16T15:11:48.504Z,4.00
2022-09-16T15:27:39.995Z,3.60
2022-09-16T16:30:31.642Z,4.00
2022-09-16T16:45:43.945Z,3.50
2022-09-16T17:01:05.304Z,4.03
2022-09-16T17:16:49.558Z,5.77
2022-09-16T17:32:04.969Z,6.13
2022-09-16T17:47:32.376Z,5.60
2022-09-16T18:02:43.398Z,4.90
2022-09-16T18:17:56.129Z,4.90
2022-09-16T18:33:13.609Z,4.07
2022-09-16T18:49:07.594Z,4.30
2022-09-16T19:20:38.903Z,4.60
2022-09-16T19:51:38.710Z,3.57
2022-09-16T20:07:31.898Z,6.17
2022-09-16T20:23:11.138Z,3.43
2022-09-16T20:54:19.566Z,4.80
2022-09-16T21:24:59.922Z,4.40
2022-09-16T21:40:16.780Z,4.77
2022-09-16T21:55:38.179Z,5.13
2022-09-16T23:30:20.657Z,5.57
